sensor_id;sensor_type;location;lat;lon;timestamp;P1;durP1;ratioP1;P2;durP2;ratioP2
26536;SDS011;14204;51.262;5.488;2024-01-30T00:01:29;18.77;;;10.52;;
26536;SDS011;14204;51.262;5.488;2024-01-30T00:03:54;14.07;;;9.73;;
26536;SDS011;14204;51.262;5.488;2024-01-30T00:06:20;15.40;;;10.18;;
26536;SDS011;14204;51.262;5.488;2024-01-30T00:08:46;18.27;;;9.98;;
26536;SDS011;14204;51.262;5.488;2024-01-30T00:11:14;19.00;;;10.43;;
26536;SDS011;14204;51.262;5.488;2024-01-30T00:13:40;16.48;;;9.82;;
26536;SDS011;14204;51.262;5.488;2024-01-30T00:16:07;15.07;;;9.98;;
26536;SDS011;14204;51.262;5.488;2024-01-30T00:18:34;15.73;;;9.88;;
26536;SDS011;14204;51.262;5.488;2024-01-30T00:21:01;18.00;;;10.18;;
26536;SDS011;14204;51.262;5.488;2024-01-30T00:23:26;13.82;;;10.07;;
26536;SDS011;14204;51.262;5.488;2024-01-30T00:25:52;12.93;;;9.50;;
26536;SDS011;14204;51.262;5.488;2024-01-30T00:28:18;19.00;;;10.80;;
26536;SDS011;14204;51.262;5.488;2024-01-30T00:30:44;16.83;;;9.57;;
26536;SDS011;14204;51.262;5.488;2024-01-30T00:33:09;15.98;;;10.55;;
26536;SDS011;14204;51.262;5.488;2024-01-30T00:35:35;18.42;;;10.55;;
26536;SDS011;14204;51.262;5.488;2024-01-30T00:38:01;14.75;;;10.23;;
26536;SDS011;14204;51.262;5.488;2024-01-30T00:40:27;15.02;;;9.90;;
26536;SDS011;14204;51.262;5.488;2024-01-30T00:42:52;14.13;;;10.55;;
26536;SDS011;14204;51.262;5.488;2024-01-30T00:45:18;13.18;;;10.23;;
26536;SDS011;14204;51.262;5.488;2024-01-30T00:47:44;13.68;;;10.15;;
26536;SDS011;14204;51.262;5.488;2024-01-30T00:50:10;15.95;;;11.05;;
26536;SDS011;14204;51.262;5.488;2024-01-30T00:52:36;15.48;;;10.52;;
26536;SDS011;14204;51.262;5.488;2024-01-30T00:55:01;12.93;;;9.50;;
26536;SDS011;14204;51.262;5.488;2024-01-30T00:57:28;12.77;;;9.75;;
26536;SDS011;14204;51.262;5.488;2024-01-30T00:59:53;12.70;;;9.25;;
26536;SDS011;14204;51.262;5.488;2024-01-30T01:02:20;16.95;;;10.38;;
26536;SDS011;14204;51.262;5.488;2024-01-30T01:04:45;12.95;;;9.95;;
26536;SDS011;14204;51.262;5.488;2024-01-30T01:07:11;14.57;;;10.25;;
26536;SDS011;14204;51.262;5.488;2024-01-30T01:09:37;14.05;;;9.27;;
26536;SDS011;14204;51.262;5.488;2024-01-30T01:12:03;11.98;;;9.50;;
26536;SDS011;14204;51.262;5.488;2024-01-30T01:14:29;16.02;;;9.27;;
26536;SDS011;14204;51.262;5.488;2024-01-30T01:16:55;16.00;;;10.98;;
26536;SDS011;14204;51.262;5.488;2024-01-30T01:19:21;15.77;;;9.52;;
26536;SDS011;14204;51.262;5.488;2024-01-30T01:21:47;13.18;;;8.43;;
26536;SDS011;14204;51.262;5.488;2024-01-30T01:24:13;11.75;;;8.80;;
26536;SDS011;14204;51.262;5.488;2024-01-30T01:26:39;15.85;;;9.65;;
26536;SDS011;14204;51.262;5.488;2024-01-30T01:29:06;11.60;;;8.40;;
26536;SDS011;14204;51.262;5.488;2024-01-30T01:31:36;11.18;;;8.23;;
26536;SDS011;14204;51.262;5.488;2024-01-30T01:34:11;11.52;;;8.90;;
26536;SDS011;14204;51.262;5.488;2024-01-30T01:36:38;13.15;;;8.57;;
26536;SDS011;14204;51.262;5.488;2024-01-30T01:39:04;13.57;;;7.85;;
26536;SDS011;14204;51.262;5.488;2024-01-30T01:41:30;11.27;;;8.15;;
26536;SDS011;14204;51.262;5.488;2024-01-30T01:43:59;12.10;;;8.32;;
26536;SDS011;14204;51.262;5.488;2024-01-30T01:46:26;13.82;;;8.20;;
26536;SDS011;14204;51.262;5.488;2024-01-30T01:48:55;11.25;;;7.50;;
26536;SDS011;14204;51.262;5.488;2024-01-30T01:51:22;15.82;;;9.05;;
26536;SDS011;14204;51.262;5.488;2024-01-30T01:53:49;12.38;;;8.73;;
26536;SDS011;14204;51.262;5.488;2024-01-30T01:56:16;14.18;;;10.40;;
26536;SDS011;14204;51.262;5.488;2024-01-30T01:58:41;15.23;;;8.77;;
26536;SDS011;14204;51.262;5.488;2024-01-30T02:01:11;12.95;;;8.65;;
26536;SDS011;14204;51.262;5.488;2024-01-30T02:03:38;16.83;;;8.75;;
26536;SDS011;14204;51.262;5.488;2024-01-30T02:06:06;11.32;;;9.05;;
26536;SDS011;14204;51.262;5.488;2024-01-30T02:08:31;13.65;;;9.05;;
26536;SDS011;14204;51.262;5.488;2024-01-30T02:10:58;13.73;;;8.73;;
26536;SDS011;14204;51.262;5.488;2024-01-30T02:13:24;16.23;;;9.23;;
26536;SDS011;14204;51.262;5.488;2024-01-30T02:15:53;11.07;;;8.60;;
26536;SDS011;14204;51.262;5.488;2024-01-30T02:18:19;12.45;;;8.57;;
26536;SDS011;14204;51.262;5.488;2024-01-30T02:20:46;11.77;;;8.23;;
26536;SDS011;14204;51.262;5.488;2024-01-30T02:23:12;13.23;;;8.93;;
26536;SDS011;14204;51.262;5.488;2024-01-30T02:25:42;10.80;;;8.10;;
26536;SDS011;14204;51.262;5.488;2024-01-30T02:28:11;14.93;;;9.63;;
26536;SDS011;14204;51.262;5.488;2024-01-30T02:30:37;15.73;;;9.32;;
26536;SDS011;14204;51.262;5.488;2024-01-30T02:33:10;17.17;;;10.77;;
26536;SDS011;14204;51.262;5.488;2024-01-30T02:35:35;12.35;;;9.30;;
26536;SDS011;14204;51.262;5.488;2024-01-30T02:38:01;14.63;;;9.93;;
26536;SDS011;14204;51.262;5.488;2024-01-30T02:40:27;15.60;;;8.70;;
26536;SDS011;14204;51.262;5.488;2024-01-30T02:42:53;12.23;;;8.20;;
26536;SDS011;14204;51.262;5.488;2024-01-30T02:45:18;12.40;;;8.73;;
26536;SDS011;14204;51.262;5.488;2024-01-30T02:47:45;14.50;;;9.10;;
26536;SDS011;14204;51.262;5.488;2024-01-30T02:50:11;15.63;;;9.55;;
26536;SDS011;14204;51.262;5.488;2024-01-30T02:52:37;14.00;;;8.75;;
26536;SDS011;14204;51.262;5.488;2024-01-30T02:55:02;13.85;;;8.63;;
26536;SDS011;14204;51.262;5.488;2024-01-30T02:57:29;13.35;;;9.82;;
26536;SDS011;14204;51.262;5.488;2024-01-30T02:59:54;13.40;;;8.32;;
26536;SDS011;14204;51.262;5.488;2024-01-30T03:02:20;12.02;;;8.23;;
26536;SDS011;14204;51.262;5.488;2024-01-30T03:04:46;14.82;;;8.77;;
26536;SDS011;14204;51.262;5.488;2024-01-30T03:07:12;13.45;;;9.07;;
26536;SDS011;14204;51.262;5.488;2024-01-30T03:09:37;14.93;;;8.85;;
26536;SDS011;14204;51.262;5.488;2024-01-30T03:12:04;10.57;;;7.85;;
26536;SDS011;14204;51.262;5.488;2024-01-30T03:14:30;14.38;;;9.00;;
26536;SDS011;14204;51.262;5.488;2024-01-30T03:16:56;14.20;;;8.95;;
26536;SDS011;14204;51.262;5.488;2024-01-30T03:19:23;11.75;;;8.55;;
26536;SDS011;14204;51.262;5.488;2024-01-30T03:21:49;12.85;;;8.38;;
26536;SDS011;14204;51.262;5.488;2024-01-30T03:24:14;10.05;;;8.38;;
26536;SDS011;14204;51.262;5.488;2024-01-30T03:26:40;12.10;;;9.05;;
26536;SDS011;14204;51.262;5.488;2024-01-30T03:29:06;11.57;;;8.77;;
26536;SDS011;14204;51.262;5.488;2024-01-30T03:31:32;11.80;;;7.55;;
26536;SDS011;14204;51.262;5.488;2024-01-30T03:33:58;12.35;;;8.52;;
26536;SDS011;14204;51.262;5.488;2024-01-30T03:36:24;12.57;;;7.72;;
26536;SDS011;14204;51.262;5.488;2024-01-30T03:38:49;11.30;;;7.85;;
26536;SDS011;14204;51.262;5.488;2024-01-30T03:41:15;12.75;;;8.10;;
26536;SDS011;14204;51.262;5.488;2024-01-30T03:43:41;9.85;;;8.18;;
26536;SDS011;14204;51.262;5.488;2024-01-30T03:46:07;12.05;;;8.60;;
26536;SDS011;14204;51.262;5.488;2024-01-30T03:48:32;11.85;;;8.38;;
26536;SDS011;14204;51.262;5.488;2024-01-30T03:50:58;13.43;;;8.43;;
26536;SDS011;14204;51.262;5.488;2024-01-30T03:53:24;13.48;;;8.98;;
26536;SDS011;14204;51.262;5.488;2024-01-30T03:55:49;13.68;;;8.82;;
26536;SDS011;14204;51.262;5.488;2024-01-30T03:58:15;14.32;;;8.25;;
26536;SDS011;14204;51.262;5.488;2024-01-30T04:00:41;9.23;;;7.45;;
26536;SDS011;14204;51.262;5.488;2024-01-30T04:03:06;14.05;;;7.45;;
26536;SDS011;14204;51.262;5.488;2024-01-30T04:05:32;10.68;;;7.78;;
26536;SDS011;14204;51.262;5.488;2024-01-30T04:07:58;10.55;;;8.25;;
26536;SDS011;14204;51.262;5.488;2024-01-30T04:10:24;13.13;;;7.40;;
26536;SDS011;14204;51.262;5.488;2024-01-30T04:12:50;15.82;;;8.20;;
26536;SDS011;14204;51.262;5.488;2024-01-30T04:15:17;9.43;;;7.45;;
26536;SDS011;14204;51.262;5.488;2024-01-30T04:17:43;9.70;;;7.93;;
26536;SDS011;14204;51.262;5.488;2024-01-30T04:20:15;13.15;;;8.57;;
26536;SDS011;14204;51.262;5.488;2024-01-30T04:22:44;12.50;;;8.55;;
26536;SDS011;14204;51.262;5.488;2024-01-30T04:25:10;11.98;;;7.70;;
26536;SDS011;14204;51.262;5.488;2024-01-30T04:27:36;10.27;;;6.75;;
26536;SDS011;14204;51.262;5.488;2024-01-30T04:30:02;11.63;;;7.10;;
26536;SDS011;14204;51.262;5.488;2024-01-30T04:32:29;9.52;;;7.55;;
26536;SDS011;14204;51.262;5.488;2024-01-30T04:34:54;11.00;;;7.38;;
26536;SDS011;14204;51.262;5.488;2024-01-30T04:37:20;9.80;;;7.57;;
26536;SDS011;14204;51.262;5.488;2024-01-30T04:39:46;10.45;;;7.50;;
26536;SDS011;14204;51.262;5.488;2024-01-30T04:42:11;12.60;;;7.72;;
26536;SDS011;14204;51.262;5.488;2024-01-30T04:44:37;10.32;;;7.55;;
26536;SDS011;14204;51.262;5.488;2024-01-30T04:47:03;11.38;;;7.90;;
26536;SDS011;14204;51.262;5.488;2024-01-30T04:49:31;10.85;;;6.80;;
26536;SDS011;14204;51.262;5.488;2024-01-30T04:51:57;9.40;;;6.78;;
26536;SDS011;14204;51.262;5.488;2024-01-30T04:54:23;11.43;;;7.55;;
26536;SDS011;14204;51.262;5.488;2024-01-30T04:56:49;10.48;;;7.03;;
26536;SDS011;14204;51.262;5.488;2024-01-30T04:59:15;13.00;;;6.90;;
26536;SDS011;14204;51.262;5.488;2024-01-30T05:01:40;9.55;;;7.00;;
26536;SDS011;14204;51.262;5.488;2024-01-30T05:04:09;13.05;;;7.50;;
26536;SDS011;14204;51.262;5.488;2024-01-30T05:06:36;8.55;;;6.72;;
26536;SDS011;14204;51.262;5.488;2024-01-30T05:09:02;10.13;;;6.70;;
26536;SDS011;14204;51.262;5.488;2024-01-30T05:11:30;10.73;;;7.28;;
26536;SDS011;14204;51.262;5.488;2024-01-30T05:13:56;10.60;;;7.15;;
26536;SDS011;14204;51.262;5.488;2024-01-30T05:16:22;9.27;;;6.35;;
26536;SDS011;14204;51.262;5.488;2024-01-30T05:18:48;9.13;;;7.22;;
26536;SDS011;14204;51.262;5.488;2024-01-30T05:21:13;9.13;;;6.63;;
26536;SDS011;14204;51.262;5.488;2024-01-30T05:23:40;9.10;;;6.75;;
26536;SDS011;14204;51.262;5.488;2024-01-30T05:26:07;11.00;;;7.43;;
26536;SDS011;14204;51.262;5.488;2024-01-30T05:28:33;13.00;;;7.10;;
26536;SDS011;14204;51.262;5.488;2024-01-30T05:30:58;9.30;;;6.72;;
26536;SDS011;14204;51.262;5.488;2024-01-30T05:33:24;12.55;;;6.72;;
26536;SDS011;14204;51.262;5.488;2024-01-30T05:35:50;11.75;;;6.65;;
26536;SDS011;14204;51.262;5.488;2024-01-30T05:38:19;12.88;;;6.95;;
26536;SDS011;14204;51.262;5.488;2024-01-30T05:40:45;12.38;;;7.15;;
26536;SDS011;14204;51.262;5.488;2024-01-30T05:43:10;8.35;;;6.82;;
26536;SDS011;14204;51.262;5.488;2024-01-30T05:45:36;11.95;;;7.40;;
26536;SDS011;14204;51.262;5.488;2024-01-30T05:48:02;9.13;;;6.93;;
26536;SDS011;14204;51.262;5.488;2024-01-30T05:50:29;10.30;;;6.53;;
26536;SDS011;14204;51.262;5.488;2024-01-30T05:52:55;8.40;;;7.25;;
26536;SDS011;14204;51.262;5.488;2024-01-30T05:55:21;8.57;;;6.53;;
26536;SDS011;14204;51.262;5.488;2024-01-30T05:57:46;9.68;;;6.53;;
26536;SDS011;14204;51.262;5.488;2024-01-30T06:00:12;12.90;;;6.82;;
26536;SDS011;14204;51.262;5.488;2024-01-30T06:02:38;11.13;;;6.50;;
26536;SDS011;14204;51.262;5.488;2024-01-30T06:05:04;11.18;;;7.85;;
26536;SDS011;14204;51.262;5.488;2024-01-30T06:07:30;11.07;;;7.00;;
26536;SDS011;14204;51.262;5.488;2024-01-30T06:09:56;10.30;;;7.07;;
26536;SDS011;14204;51.262;5.488;2024-01-30T06:12:22;9.27;;;7.35;;
26536;SDS011;14204;51.262;5.488;2024-01-30T06:14:48;12.07;;;7.50;;
26536;SDS011;14204;51.262;5.488;2024-01-30T06:17:13;12.55;;;7.43;;
26536;SDS011;14204;51.262;5.488;2024-01-30T06:19:39;11.90;;;7.70;;
26536;SDS011;14204;51.262;5.488;2024-01-30T06:22:05;9.93;;;7.22;;
26536;SDS011;14204;51.262;5.488;2024-01-30T06:24:31;10.80;;;6.95;;
26536;SDS011;14204;51.262;5.488;2024-01-30T06:26:57;11.02;;;6.63;;
26536;SDS011;14204;51.262;5.488;2024-01-30T06:29:22;11.32;;;7.20;;
26536;SDS011;14204;51.262;5.488;2024-01-30T06:31:49;9.35;;;7.10;;
26536;SDS011;14204;51.262;5.488;2024-01-30T06:34:15;11.65;;;7.22;;
26536;SDS011;14204;51.262;5.488;2024-01-30T06:36:41;9.85;;;6.95;;
26536;SDS011;14204;51.262;5.488;2024-01-30T06:39:07;9.73;;;7.13;;
26536;SDS011;14204;51.262;5.488;2024-01-30T06:41:33;13.90;;;6.82;;
26536;SDS011;14204;51.262;5.488;2024-01-30T06:43:58;31.85;;;28.52;;
26536;SDS011;14204;51.262;5.488;2024-01-30T06:46:24;9.45;;;6.75;;
26536;SDS011;14204;51.262;5.488;2024-01-30T06:48:50;9.10;;;7.03;;
26536;SDS011;14204;51.262;5.488;2024-01-30T06:51:16;8.35;;;6.93;;
26536;SDS011;14204;51.262;5.488;2024-01-30T06:53:41;13.30;;;6.80;;
26536;SDS011;14204;51.262;5.488;2024-01-30T06:56:07;8.70;;;6.55;;
26536;SDS011;14204;51.262;5.488;2024-01-30T06:58:33;10.05;;;6.85;;
26536;SDS011;14204;51.262;5.488;2024-01-30T07:00:59;9.93;;;6.45;;
26536;SDS011;14204;51.262;5.488;2024-01-30T07:03:24;13.13;;;6.55;;
26536;SDS011;14204;51.262;5.488;2024-01-30T07:05:50;12.73;;;6.85;;
26536;SDS011;14204;51.262;5.488;2024-01-30T07:08:16;10.27;;;6.97;;
26536;SDS011;14204;51.262;5.488;2024-01-30T07:10:43;14.55;;;7.22;;
26536;SDS011;14204;51.262;5.488;2024-01-30T07:13:09;8.40;;;6.85;;
26536;SDS011;14204;51.262;5.488;2024-01-30T07:15:35;10.45;;;6.45;;
26536;SDS011;14204;51.262;5.488;2024-01-30T07:18:02;13.65;;;6.75;;
26536;SDS011;14204;51.262;5.488;2024-01-30T07:20:29;12.48;;;7.10;;
26536;SDS011;14204;51.262;5.488;2024-01-30T07:22:58;10.00;;;7.93;;
26536;SDS011;14204;51.262;5.488;2024-01-30T07:25:23;10.27;;;7.20;;
26536;SDS011;14204;51.262;5.488;2024-01-30T07:27:54;9.93;;;7.15;;
26536;SDS011;14204;51.262;5.488;2024-01-30T07:30:20;10.75;;;7.30;;
26536;SDS011;14204;51.262;5.488;2024-01-30T07:32:46;10.57;;;6.97;;
26536;SDS011;14204;51.262;5.488;2024-01-30T07:35:13;13.70;;;8.07;;
26536;SDS011;14204;51.262;5.488;2024-01-30T07:37:39;8.93;;;7.25;;
26536;SDS011;14204;51.262;5.488;2024-01-30T07:40:05;10.68;;;8.52;;
26536;SDS011;14204;51.262;5.488;2024-01-30T07:42:32;13.27;;;7.32;;
26536;SDS011;14204;51.262;5.488;2024-01-30T07:44:58;10.23;;;7.20;;
26536;SDS011;14204;51.262;5.488;2024-01-30T07:47:25;9.93;;;7.47;;
26536;SDS011;14204;51.262;5.488;2024-01-30T07:49:51;10.98;;;7.85;;
26536;SDS011;14204;51.262;5.488;2024-01-30T07:52:20;13.93;;;7.70;;
26536;SDS011;14204;51.262;5.488;2024-01-30T07:54:57;10.43;;;7.78;;
26536;SDS011;14204;51.262;5.488;2024-01-30T07:57:25;13.07;;;7.55;;
26536;SDS011;14204;51.262;5.488;2024-01-30T07:59:51;11.60;;;6.90;;
26536;SDS011;14204;51.262;5.488;2024-01-30T08:02:16;13.50;;;8.20;;
26536;SDS011;14204;51.262;5.488;2024-01-30T08:04:42;9.80;;;6.70;;
26536;SDS011;14204;51.262;5.488;2024-01-30T08:07:08;13.10;;;7.25;;
26536;SDS011;14204;51.262;5.488;2024-01-30T08:09:34;9.93;;;6.85;;
26536;SDS011;14204;51.262;5.488;2024-01-30T08:12:00;10.88;;;7.40;;
26536;SDS011;14204;51.262;5.488;2024-01-30T08:14:26;9.65;;;6.53;;
26536;SDS011;14204;51.262;5.488;2024-01-30T08:16:53;12.57;;;6.60;;
26536;SDS011;14204;51.262;5.488;2024-01-30T08:19:19;12.48;;;7.90;;
26536;SDS011;14204;51.262;5.488;2024-01-30T08:21:44;11.45;;;7.95;;
26536;SDS011;14204;51.262;5.488;2024-01-30T08:24:10;12.15;;;7.97;;
26536;SDS011;14204;51.262;5.488;2024-01-30T08:26:36;12.18;;;7.10;;
26536;SDS011;14204;51.262;5.488;2024-01-30T08:29:02;12.65;;;6.85;;
26536;SDS011;14204;51.262;5.488;2024-01-30T08:31:28;11.07;;;7.50;;
26536;SDS011;14204;51.262;5.488;2024-01-30T08:33:53;13.40;;;8.02;;
26536;SDS011;14204;51.262;5.488;2024-01-30T08:36:19;13.10;;;7.72;;
26536;SDS011;14204;51.262;5.488;2024-01-30T08:38:45;14.80;;;8.02;;
26536;SDS011;14204;51.262;5.488;2024-01-30T08:41:11;12.48;;;7.45;;
26536;SDS011;14204;51.262;5.488;2024-01-30T08:43:37;11.27;;;7.70;;
26536;SDS011;14204;51.262;5.488;2024-01-30T08:46:02;10.50;;;6.97;;
26536;SDS011;14204;51.262;5.488;2024-01-30T08:48:28;10.52;;;7.53;;
26536;SDS011;14204;51.262;5.488;2024-01-30T08:50:54;8.77;;;6.38;;
26536;SDS011;14204;51.262;5.488;2024-01-30T08:53:20;14.32;;;7.90;;
26536;SDS011;14204;51.262;5.488;2024-01-30T08:55:46;14.82;;;7.85;;
26536;SDS011;14204;51.262;5.488;2024-01-30T08:58:12;9.93;;;7.50;;
26536;SDS011;14204;51.262;5.488;2024-01-30T09:00:38;13.23;;;8.48;;
26536;SDS011;14204;51.262;5.488;2024-01-30T09:03:03;13.50;;;7.90;;
26536;SDS011;14204;51.262;5.488;2024-01-30T09:05:30;15.15;;;8.57;;
26536;SDS011;14204;51.262;5.488;2024-01-30T09:07:55;9.35;;;7.00;;
26536;SDS011;14204;51.262;5.488;2024-01-30T09:10:21;12.70;;;7.22;;
26536;SDS011;14204;51.262;5.488;2024-01-30T09:12:47;11.93;;;8.50;;
26536;SDS011;14204;51.262;5.488;2024-01-30T09:15:14;12.80;;;8.02;;
26536;SDS011;14204;51.262;5.488;2024-01-30T09:17:40;12.50;;;8.07;;
26536;SDS011;14204;51.262;5.488;2024-01-30T09:20:06;11.52;;;7.82;;
26536;SDS011;14204;51.262;5.488;2024-01-30T09:22:32;12.27;;;7.95;;
26536;SDS011;14204;51.262;5.488;2024-01-30T09:24:58;13.00;;;8.27;;
26536;SDS011;14204;51.262;5.488;2024-01-30T09:27:24;13.35;;;7.75;;
26536;SDS011;14204;51.262;5.488;2024-01-30T09:29:49;14.27;;;7.80;;
26536;SDS011;14204;51.262;5.488;2024-01-30T09:32:15;9.55;;;8.00;;
26536;SDS011;14204;51.262;5.488;2024-01-30T09:34:42;12.32;;;8.57;;
26536;SDS011;14204;51.262;5.488;2024-01-30T09:37:08;13.30;;;8.30;;
26536;SDS011;14204;51.262;5.488;2024-01-30T09:39:34;11.50;;;7.60;;
26536;SDS011;14204;51.262;5.488;2024-01-30T09:42:05;16.67;;;7.95;;
26536;SDS011;14204;51.262;5.488;2024-01-30T09:44:37;9.85;;;7.13;;
26536;SDS011;14204;51.262;5.488;2024-01-30T09:47:06;12.43;;;7.82;;
26536;SDS011;14204;51.262;5.488;2024-01-30T09:49:32;16.23;;;7.93;;
26536;SDS011;14204;51.262;5.488;2024-01-30T09:52:00;17.92;;;8.77;;
26536;SDS011;14204;51.262;5.488;2024-01-30T09:54:30;12.63;;;7.13;;
26536;SDS011;14204;51.262;5.488;2024-01-30T09:56:57;12.40;;;7.85;;
26536;SDS011;14204;51.262;5.488;2024-01-30T09:59:23;13.63;;;7.47;;
26536;SDS011;14204;51.262;5.488;2024-01-30T10:01:50;13.55;;;8.35;;
26536;SDS011;14204;51.262;5.488;2024-01-30T10:04:16;13.45;;;8.05;;
26536;SDS011;14204;51.262;5.488;2024-01-30T10:06:42;17.23;;;8.45;;
26536;SDS011;14204;51.262;5.488;2024-01-30T10:09:08;11.35;;;7.70;;
26536;SDS011;14204;51.262;5.488;2024-01-30T10:11:34;15.75;;;7.53;;
26536;SDS011;14204;51.262;5.488;2024-01-30T10:14:01;10.70;;;7.35;;
26536;SDS011;14204;51.262;5.488;2024-01-30T10:16:27;13.48;;;7.93;;
26536;SDS011;14204;51.262;5.488;2024-01-30T10:18:53;12.32;;;8.35;;
26536;SDS011;14204;51.262;5.488;2024-01-30T10:21:18;15.50;;;8.73;;
26536;SDS011;14204;51.262;5.488;2024-01-30T10:23:44;12.68;;;7.72;;
26536;SDS011;14204;51.262;5.488;2024-01-30T10:26:10;17.50;;;8.48;;
26536;SDS011;14204;51.262;5.488;2024-01-30T10:28:36;15.75;;;8.18;;
26536;SDS011;14204;51.262;5.488;2024-01-30T10:31:02;17.27;;;8.40;;
26536;SDS011;14204;51.262;5.488;2024-01-30T10:33:31;20.70;;;8.25;;
26536;SDS011;14204;51.262;5.488;2024-01-30T10:36:01;16.52;;;8.27;;
26536;SDS011;14204;51.262;5.488;2024-01-30T10:38:28;18.67;;;9.18;;
26536;SDS011;14204;51.262;5.488;2024-01-30T10:40:56;20.05;;;9.70;;
26536;SDS011;14204;51.262;5.488;2024-01-30T10:43:32;15.55;;;8.85;;
26536;SDS011;14204;51.262;5.488;2024-01-30T10:46:10;12.85;;;9.00;;
26536;SDS011;14204;51.262;5.488;2024-01-30T10:48:42;16.08;;;8.93;;
26536;SDS011;14204;51.262;5.488;2024-01-30T10:51:10;12.40;;;8.30;;
26536;SDS011;14204;51.262;5.488;2024-01-30T10:53:37;14.25;;;8.20;;
26536;SDS011;14204;51.262;5.488;2024-01-30T10:56:04;18.55;;;8.05;;
26536;SDS011;14204;51.262;5.488;2024-01-30T10:58:31;14.35;;;8.38;;
26536;SDS011;14204;51.262;5.488;2024-01-30T11:00:56;16.77;;;8.63;;
26536;SDS011;14204;51.262;5.488;2024-01-30T11:03:24;15.75;;;9.48;;
26536;SDS011;14204;51.262;5.488;2024-01-30T11:05:50;16.08;;;8.70;;
26536;SDS011;14204;51.262;5.488;2024-01-30T11:08:26;21.58;;;9.32;;
26536;SDS011;14204;51.262;5.488;2024-01-30T11:10:58;13.48;;;9.27;;
26536;SDS011;14204;51.262;5.488;2024-01-30T11:13:30;17.77;;;9.38;;
26536;SDS011;14204;51.262;5.488;2024-01-30T11:18:26;15.52;;;9.45;;
26536;SDS011;14204;51.262;5.488;2024-01-30T11:21:01;16.77;;;8.85;;
26536;SDS011;14204;51.262;5.488;2024-01-30T11:23:30;15.05;;;9.13;;
26536;SDS011;14204;51.262;5.488;2024-01-30T11:25:58;18.13;;;9.77;;
26536;SDS011;14204;51.262;5.488;2024-01-30T11:28:23;16.13;;;9.88;;
26536;SDS011;14204;51.262;5.488;2024-01-30T11:30:49;18.52;;;11.20;;
26536;SDS011;14204;51.262;5.488;2024-01-30T11:33:28;15.95;;;9.77;;
26536;SDS011;14204;51.262;5.488;2024-01-30T11:35:58;17.00;;;9.57;;
26536;SDS011;14204;51.262;5.488;2024-01-30T11:38:25;14.00;;;8.60;;
26536;SDS011;14204;51.262;5.488;2024-01-30T11:40:53;18.73;;;9.57;;
26536;SDS011;14204;51.262;5.488;2024-01-30T11:43:25;16.55;;;9.63;;
26536;SDS011;14204;51.262;5.488;2024-01-30T11:45:51;19.98;;;9.30;;
26536;SDS011;14204;51.262;5.488;2024-01-30T11:48:17;21.20;;;10.23;;
26536;SDS011;14204;51.262;5.488;2024-01-30T11:50:43;21.50;;;11.38;;
26536;SDS011;14204;51.262;5.488;2024-01-30T11:53:09;21.48;;;10.55;;
26536;SDS011;14204;51.262;5.488;2024-01-30T11:55:36;16.00;;;10.25;;
26536;SDS011;14204;51.262;5.488;2024-01-30T11:58:11;19.52;;;10.93;;
26536;SDS011;14204;51.262;5.488;2024-01-30T12:00:58;17.05;;;10.00;;
26536;SDS011;14204;51.262;5.488;2024-01-30T12:03:28;18.83;;;10.00;;
26536;SDS011;14204;51.262;5.488;2024-01-30T12:05:57;22.38;;;11.18;;
26536;SDS011;14204;51.262;5.488;2024-01-30T12:08:25;16.05;;;9.60;;
26536;SDS011;14204;51.262;5.488;2024-01-30T12:10:56;16.92;;;9.38;;
26536;SDS011;14204;51.262;5.488;2024-01-30T12:13:24;17.17;;;9.73;;
26536;SDS011;14204;51.262;5.488;2024-01-30T12:15:50;17.10;;;9.95;;
26536;SDS011;14204;51.262;5.488;2024-01-30T12:18:19;19.05;;;10.05;;
26536;SDS011;14204;51.262;5.488;2024-01-30T12:20:45;12.90;;;8.45;;
26536;SDS011;14204;51.262;5.488;2024-01-30T12:23:21;17.85;;;8.80;;
26536;SDS011;14204;51.262;5.488;2024-01-30T12:25:50;15.75;;;7.57;;
26536;SDS011;14204;51.262;5.488;2024-01-30T12:28:17;13.27;;;6.47;;
26536;SDS011;14204;51.262;5.488;2024-01-30T12:30:44;11.82;;;4.80;;
26536;SDS011;14204;51.262;5.488;2024-01-30T12:33:09;14.15;;;5.15;;
26536;SDS011;14204;51.262;5.488;2024-01-30T12:35:46;9.23;;;4.65;;
26536;SDS011;14204;51.262;5.488;2024-01-30T12:38:14;9.13;;;3.53;;
26536;SDS011;14204;51.262;5.488;2024-01-30T12:40:40;6.50;;;3.50;;
26536;SDS011;14204;51.262;5.488;2024-01-30T12:43:06;8.45;;;3.50;;
26536;SDS011;14204;51.262;5.488;2024-01-30T12:45:32;8.45;;;3.30;;
26536;SDS011;14204;51.262;5.488;2024-01-30T12:47:58;5.53;;;2.80;;
26536;SDS011;14204;51.262;5.488;2024-01-30T12:50:24;7.32;;;2.35;;
26536;SDS011;14204;51.262;5.488;2024-01-30T12:52:50;7.65;;;2.72;;
26536;SDS011;14204;51.262;5.488;2024-01-30T12:55:16;8.23;;;2.65;;
26536;SDS011;14204;51.262;5.488;2024-01-30T12:57:42;5.70;;;2.45;;
26536;SDS011;14204;51.262;5.488;2024-01-30T13:00:08;7.32;;;2.30;;
26536;SDS011;14204;51.262;5.488;2024-01-30T13:02:34;10.65;;;3.08;;
26536;SDS011;14204;51.262;5.488;2024-01-30T13:05:05;5.05;;;2.17;;
26536;SDS011;14204;51.262;5.488;2024-01-30T13:07:31;3.63;;;1.80;;
26536;SDS011;14204;51.262;5.488;2024-01-30T13:09:58;4.10;;;1.90;;
26536;SDS011;14204;51.262;5.488;2024-01-30T13:12:28;4.13;;;1.88;;
26536;SDS011;14204;51.262;5.488;2024-01-30T13:14:54;2.78;;;1.65;;
26536;SDS011;14204;51.262;5.488;2024-01-30T13:17:20;5.28;;;2.20;;
26536;SDS011;14204;51.262;5.488;2024-01-30T13:19:46;4.28;;;1.60;;
26536;SDS011;14204;51.262;5.488;2024-01-30T13:22:15;7.03;;;1.52;;
26536;SDS011;14204;51.262;5.488;2024-01-30T13:24:42;3.47;;;1.38;;
26536;SDS011;14204;51.262;5.488;2024-01-30T13:27:08;3.25;;;1.27;;
26536;SDS011;14204;51.262;5.488;2024-01-30T13:29:34;1.65;;;1.10;;
26536;SDS011;14204;51.262;5.488;2024-01-30T13:31:59;4.28;;;1.20;;
26536;SDS011;14204;51.262;5.488;2024-01-30T13:34:25;5.00;;;1.15;;
26536;SDS011;14204;51.262;5.488;2024-01-30T13:36:51;3.60;;;1.20;;
26536;SDS011;14204;51.262;5.488;2024-01-30T13:39:17;3.58;;;0.77;;
26536;SDS011;14204;51.262;5.488;2024-01-30T13:41:43;3.22;;;1.27;;
26536;SDS011;14204;51.262;5.488;2024-01-30T13:44:08;3.92;;;1.20;;
26536;SDS011;14204;51.262;5.488;2024-01-30T13:46:34;4.35;;;1.23;;
26536;SDS011;14204;51.262;5.488;2024-01-30T13:49:01;4.35;;;1.25;;
26536;SDS011;14204;51.262;5.488;2024-01-30T13:51:27;2.33;;;0.90;;
26536;SDS011;14204;51.262;5.488;2024-01-30T13:53:53;4.70;;;1.00;;
26536;SDS011;14204;51.262;5.488;2024-01-30T13:56:22;7.57;;;1.27;;
26536;SDS011;14204;51.262;5.488;2024-01-30T13:58:48;7.68;;;3.17;;
26536;SDS011;14204;51.262;5.488;2024-01-30T14:01:15;2.20;;;0.98;;
26536;SDS011;14204;51.262;5.488;2024-01-30T14:03:41;4.60;;;0.90;;
26536;SDS011;14204;51.262;5.488;2024-01-30T14:06:07;4.72;;;0.70;;
26536;SDS011;14204;51.262;5.488;2024-01-30T14:08:33;2.58;;;0.80;;
26536;SDS011;14204;51.262;5.488;2024-01-30T14:10:59;3.92;;;1.35;;
26536;SDS011;14204;51.262;5.488;2024-01-30T14:13:24;5.75;;;0.90;;
26536;SDS011;14204;51.262;5.488;2024-01-30T14:15:51;5.13;;;0.95;;
26536;SDS011;14204;51.262;5.488;2024-01-30T14:18:18;4.55;;;1.27;;
26536;SDS011;14204;51.262;5.488;2024-01-30T14:20:43;2.67;;;0.75;;
26536;SDS011;14204;51.262;5.488;2024-01-30T14:23:09;3.13;;;1.00;;
26536;SDS011;14204;51.262;5.488;2024-01-30T14:25:35;4.40;;;1.60;;
26536;SDS011;14204;51.262;5.488;2024-01-30T14:28:00;5.47;;;1.30;;
26536;SDS011;14204;51.262;5.488;2024-01-30T14:30:26;3.13;;;1.10;;
26536;SDS011;14204;51.262;5.488;2024-01-30T14:32:52;6.38;;;1.20;;
26536;SDS011;14204;51.262;5.488;2024-01-30T14:35:18;3.78;;;1.08;;